Time;durP1;ratioP1;P1;durP2;ratioP2;P2;SDS_P1;SDS_P2;PMS_P1;PMS_P2;Temp;Humidity;BMP_temperature;BMP_pressure;BME280_temperature;BME280_humidity;BME280_pressure;Samples;Min_cycle;Max_cycle;Signal;HPM_P1;HPM_P2
2022/10/24 00:00:36;;;;;;;5.68;1.48;;;14.80;99.90;;;;;;5053646;28;20037;-76
2022/10/24 00:03:01;;;;;;;5.68;1.65;;;14.80;99.90;;;;;;5037242;28;20384;-76
2022/10/24 00:05:27;;;;;;;5.75;1.60;;;14.80;99.90;;;;;;5037219;28;20037;-76
2022/10/24 00:07:53;;;;;;;2.05;1.13;;;14.80;99.90;;;;;;5053236;28;20270;-76
2022/10/24 00:10:19;;;;;;;6.18;1.60;;;14.80;99.90;;;;;;5053304;28;20159;-76
2022/10/24 00:12:45;;;;;;;4.07;1.30;;;14.80;99.90;;;;;;5053704;28;20033;-75
2022/10/24 00:15:12;;;;;;;4.70;1.80;;;14.80;99.90;;;;;;5053350;28;20040;-75
2022/10/24 00:17:37;;;;;;;3.25;1.40;;;14.80;99.90;;;;;;5036706;28;20075;-75
2022/10/24 00:20:05;;;;;;;4.90;1.45;;;14.80;99.90;;;;;;5053384;28;20084;-75
2022/10/24 00:22:31;;;;;;;4.40;1.40;;;14.80;99.90;;;;;;5053158;28;20507;-75
2022/10/24 00:24:56;;;;;;;3.95;1.77;;;14.80;99.90;;;;;;5036528;28;20033;-75
2022/10/24 00:27:22;;;;;;;5.13;1.55;;;14.80;99.90;;;;;;5053099;28;20098;-76
2022/10/24 00:29:48;;;;;;;3.10;1.60;;;14.80;99.90;;;;;;5036666;28;20055;-76
2022/10/24 00:32:13;;;;;;;4.57;1.70;;;14.70;99.90;;;;;;5036693;28;20051;-76
2022/10/24 00:34:39;;;;;;;5.80;1.67;;;14.70;99.90;;;;;;5052982;28;20115;-76
2022/10/24 00:37:05;;;;;;;3.53;1.35;;;14.70;99.90;;;;;;5052766;28;20091;-76
2022/10/24 00:39:31;;;;;;;4.05;1.60;;;14.70;99.90;;;;;;5053141;28;20041;-76
2022/10/24 00:41:59;;;;;;;4.60;1.70;;;14.70;99.90;;;;;;5052820;28;20033;-76
2022/10/24 00:44:31;;;;;;;3.50;1.70;;;14.60;99.90;;;;;;5053042;28;20475;-76
2022/10/24 00:47:05;;;;;;;4.53;2.07;;;14.70;99.90;;;;;;5052597;28;20116;-76
2022/10/24 00:49:49;;;;;;;5.15;2.20;;;14.60;99.90;;;;;;5036064;28;20095;-76
2022/10/24 00:52:19;;;;;;;4.18;2.33;;;14.60;99.90;;;;;;5052709;28;20041;-76
2022/10/24 00:54:45;;;;;;;5.75;2.25;;;14.70;99.90;;;;;;5052570;28;20037;-76
2022/10/24 00:57:23;;;;;;;7.57;2.50;;;14.70;99.90;;;;;;5052677;28;20102;-76
2022/10/24 00:59:53;;;;;;;8.70;2.72;;;14.80;99.90;;;;;;5052407;28;20075;-76
2022/10/24 01:02:20;;;;;;;4.32;2.40;;;14.70;99.90;;;;;;5052258;28;20047;-76
2022/10/24 01:04:47;;;;;;;4.05;2.70;;;14.80;99.90;;;;;;5052448;28;20044;-76
2022/10/24 01:07:34;;;;;;;4.88;2.25;;;14.80;99.90;;;;;;5052159;28;20033;-76
2022/10/24 01:10:25;;;;;;;6.82;3.05;;;14.70;99.90;;;;;;5052492;28;20037;-76
2022/10/24 01:13:07;;;;;;;5.50;2.80;;;14.80;99.90;;;;;;5052399;28;20586;-76
2022/10/24 01:15:52;;;;;;;4.82;2.72;;;14.80;99.90;;;;;;5052613;28;20055;-76
2022/10/24 01:18:32;;;;;;;6.50;2.63;;;14.80;99.90;;;;;;5035645;28;20369;-76
2022/10/24 01:21:12;;;;;;;5.63;2.33;;;14.70;99.90;;;;;;5052498;28;20041;-75
2022/10/24 01:24:05;;;;;;;5.05;2.17;;;14.70;99.90;;;;;;5052023;28;20048;-75
2022/10/24 01:26:53;;;;;;;6.30;2.65;;;14.70;99.90;;;;;;5052179;28;20052;-76
2022/10/24 01:29:43;;;;;;;5.82;2.63;;;14.70;99.90;;;;;;5052249;28;20495;-75
2022/10/24 01:32:30;;;;;;;5.70;2.90;;;14.60;99.90;;;;;;5052015;28;20041;-75
2022/10/24 01:35:34;;;;;;;6.55;2.47;;;14.60;99.90;;;;;;5051903;28;20051;-75
2022/10/24 01:38:10;;;;;;;5.53;2.70;;;14.50;99.90;;;;;;5051609;28;20041;-76
2022/10/24 01:40:51;;;;;;;8.25;3.08;;;14.50;99.90;;;;;;5035048;28;20037;-75
2022/10/24 01:43:24;;;;;;;6.32;2.50;;;14.40;99.90;;;;;;5051833;28;20037;-75
2022/10/24 01:46:05;;;;;;;5.75;2.30;;;14.40;99.90;;;;;;5051576;28;20442;-76
2022/10/24 01:48:37;;;;;;;6.43;2.30;;;14.40;99.90;;;;;;5051532;28;20099;-75
2022/10/24 01:51:05;;;;;;;8.48;2.95;;;14.50;99.90;;;;;;5051516;28;20134;-75
2022/10/24 01:53:30;;;;;;;5.32;2.67;;;14.40;99.90;;;;;;5051453;28;20044;-75
2022/10/24 01:55:57;;;;;;;6.88;2.50;;;14.40;99.90;;;;;;5051483;28;20043;-75
2022/10/24 01:58:22;;;;;;;4.97;2.33;;;14.40;99.90;;;;;;5051145;28;20040;-75
2022/10/24 02:00:51;;;;;;;4.00;2.25;;;14.40;99.90;;;;;;5051538;28;20045;-75
2022/10/24 02:03:40;;;;;;;5.55;2.50;;;14.40;99.90;;;;;;5035078;28;20342;-75
2022/10/24 02:06:14;;;;;;;4.70;2.60;;;14.30;99.90;;;;;;5034922;28;20053;-75
2022/10/24 02:08:51;;;;;;;7.80;2.60;;;14.30;99.90;;;;;;5050846;28;20132;-75
2022/10/24 02:11:16;;;;;;;6.15;2.13;;;14.30;99.90;;;;;;5034807;28;20048;-75
2022/10/24 02:13:52;;;;;;;4.15;2.22;;;14.30;99.90;;;;;;5050429;28;20041;-75
2022/10/24 02:16:19;;;;;;;5.13;2.05;;;14.20;99.90;;;;;;5051080;28;20099;-75
2022/10/24 02:18:50;;;;;;;8.15;2.55;;;14.20;99.90;;;;;;5034259;28;20079;-75
2022/10/24 02:21:27;;;;;;;6.25;2.53;;;14.10;99.90;;;;;;5051093;28;20395;-75
2022/10/24 02:23:52;;;;;;;4.60;2.15;;;14.10;99.90;;;;;;5050949;28;20037;-75
2022/10/24 02:26:29;;;;;;;6.25;2.70;;;14.10;99.90;;;;;;5050866;28;20064;-75
2022/10/24 02:29:00;;;;;;;5.00;2.00;;;14.10;99.90;;;;;;5034056;28;20041;-76
2022/10/24 02:31:34;;;;;;;9.90;2.85;;;14.20;99.90;;;;;;5050974;28;20044;-75
2022/10/24 02:34:04;;;;;;;4.80;2.10;;;14.20;99.90;;;;;;5034709;28;20059;-75
2022/10/24 02:36:31;;;;;;;5.95;2.58;;;14.20;99.90;;;;;;5050658;28;20079;-76
2022/10/24 02:38:58;;;;;;;7.07;2.63;;;14.20;99.90;;;;;;5033889;28;20040;-75
2022/10/24 02:41:34;;;;;;;5.68;2.22;;;14.10;99.90;;;;;;5034030;28;20123;-75
2022/10/24 02:44:02;;;;;;;4.60;2.10;;;14.10;99.90;;;;;;5050847;28;20036;-75
2022/10/24 02:46:29;;;;;;;4.43;2.17;;;14.10;99.90;;;;;;5050518;28;20036;-76
2022/10/24 02:49:00;;;;;;;6.57;2.33;;;14.20;99.90;;;;;;5033729;28;20029;-75
2022/10/24 02:51:30;;;;;;;3.47;1.92;;;14.20;99.90;;;;;;5050395;28;20041;-75
2022/10/24 02:53:58;;;;;;;6.43;2.30;;;14.30;99.90;;;;;;5050489;28;20040;-75
2022/10/24 02:56:23;;;;;;;8.10;2.30;;;14.30;99.90;;;;;;5034240;28;20045;-75
2022/10/24 02:58:49;;;;;;;7.43;2.65;;;14.40;99.90;;;;;;5050104;28;20037;-75
2022/10/24 03:01:15;;;;;;;4.05;1.95;;;14.40;99.90;;;;;;5033757;28;20406;-75
2022/10/24 03:03:40;;;;;;;5.22;2.22;;;14.40;99.90;;;;;;5033758;28;20045;-75
2022/10/24 03:06:06;;;;;;;5.05;2.40;;;14.40;99.90;;;;;;5033740;28;20052;-75
2022/10/24 03:08:32;;;;;;;5.88;2.60;;;14.40;99.90;;;;;;5033444;28;20037;-75
2022/10/24 03:10:57;;;;;;;8.25;2.70;;;14.40;99.90;;;;;;5050517;28;20453;-75
2022/10/24 03:13:23;;;;;;;5.75;2.20;;;14.40;99.90;;;;;;5050239;28;20119;-75
2022/10/24 03:15:49;;;;;;;6.53;2.20;;;14.30;99.90;;;;;;5033868;28;20044;-75
2022/10/24 03:18:14;;;;;;;7.25;2.42;;;14.40;99.90;;;;;;5033484;28;20033;-76
2022/10/24 03:20:40;;;;;;;6.15;2.22;;;14.40;99.90;;;;;;5049964;28;20041;-75
2022/10/24 03:23:06;;;;;;;5.35;2.60;;;14.40;99.90;;;;;;5033622;28;20406;-75
2022/10/24 03:25:32;;;;;;;3.83;1.92;;;14.40;99.90;;;;;;5054530;28;20437;-76
2022/10/24 03:27:58;;;;;;;6.40;2.63;;;14.50;99.90;;;;;;5037253;28;20037;-75
2022/10/24 03:30:23;;;;;;;6.18;2.17;;;14.50;99.90;;;;;;5054435;28;20044;-75
2022/10/24 03:32:49;;;;;;;4.82;2.53;;;14.50;99.90;;;;;;5054153;28;20044;-75
2022/10/24 03:35:15;;;;;;;3.88;2.30;;;14.50;99.90;;;;;;5054144;28;20167;-76
2022/10/24 03:37:41;;;;;;;5.15;2.30;;;14.40;99.90;;;;;;5037358;28;20114;-75
2022/10/24 03:40:08;;;;;;;4.20;2.10;;;14.40;99.90;;;;;;5037615;28;20092;-75
2022/10/24 03:42:33;;;;;;;4.82;2.17;;;14.40;99.90;;;;;;5053821;28;20163;-75
2022/10/24 03:44:59;;;;;;;3.55;2.13;;;14.30;99.90;;;;;;5053939;28;20156;-75
2022/10/24 03:47:24;;;;;;;5.70;2.40;;;14.30;99.90;;;;;;5053638;28;20506;-76
2022/10/24 03:49:50;;;;;;;6.43;2.40;;;14.40;99.90;;;;;;5053958;28;20080;-74
2022/10/24 03:52:16;;;;;;;4.57;2.30;;;14.30;99.90;;;;;;5037282;28;20037;-76
2022/10/24 03:54:41;;;;;;;4.90;2.20;;;14.40;99.90;;;;;;5054069;28;20029;-75
2022/10/24 03:57:08;;;;;;;6.20;2.20;;;14.40;99.90;;;;;;5053430;28;20041;-76
2022/10/24 03:59:35;;;;;;;7.32;2.30;;;14.40;99.90;;;;;;5037306;28;20476;-75
2022/10/24 04:02:01;;;;;;;4.57;2.40;;;14.30;99.90;;;;;;5036796;28;20045;-76
2022/10/24 04:04:27;;;;;;;4.03;1.90;;;14.30;99.90;;;;;;5053494;28;20496;-75
2022/10/24 04:06:52;;;;;;;4.60;2.05;;;14.40;99.90;;;;;;5053404;28;20175;-75
2022/10/24 04:09:18;;;;;;;5.75;2.25;;;14.30;99.90;;;;;;5053331;28;20530;-75
2022/10/24 04:11:44;;;;;;;4.93;2.20;;;14.40;99.90;;;;;;5053347;28;20482;-76
2022/10/24 04:14:10;;;;;;;4.45;1.80;;;14.30;99.90;;;;;;5036731;28;20036;-75
2022/10/24 04:16:35;;;;;;;6.13;1.90;;;14.30;99.90;;;;;;5037004;28;20082;-75
2022/10/24 04:19:01;;;;;;;3.22;1.88;;;14.30;99.90;;;;;;5053414;28;20045;-75
2022/10/24 04:21:27;;;;;;;6.18;2.40;;;14.30;99.90;;;;;;5053133;28;20040;-75
2022/10/24 04:23:52;;;;;;;5.30;1.98;;;14.20;99.90;;;;;;5053469;28;20044;-75
2022/10/24 04:26:18;;;;;;;4.20;1.80;;;14.20;99.90;;;;;;5036580;28;20105;-75
2022/10/24 04:28:45;;;;;;;5.57;1.90;;;14.10;99.90;;;;;;5052884;28;20045;-75
2022/10/24 04:31:11;;;;;;;6.53;1.95;;;14.10;99.90;;;;;;5053375;28;20407;-75
2022/10/24 04:33:37;;;;;;;6.05;1.70;;;14.10;99.90;;;;;;5053106;28;20517;-75
2022/10/24 04:36:03;;;;;;;5.82;1.70;;;14.10;99.90;;;;;;5036021;28;20102;-75
2022/10/24 04:38:28;;;;;;;4.65;1.85;;;14.10;99.90;;;;;;5052832;28;20076;-75
2022/10/24 04:40:54;;;;;;;2.35;1.40;;;14.00;99.90;;;;;;5036519;28;20138;-75
2022/10/24 04:43:21;;;;;;;6.30;1.60;;;14.00;99.90;;;;;;5053245;28;20049;-76
2022/10/24 04:45:47;;;;;;;4.70;1.98;;;14.00;99.90;;;;;;5052885;28;20037;-75
2022/10/24 04:48:13;;;;;;;5.50;1.80;;;14.00;99.90;;;;;;5052460;28;20597;-75
2022/10/24 04:50:40;;;;;;;4.15;1.65;;;14.00;99.90;;;;;;5052963;28;20041;-75
2022/10/24 04:53:06;;;;;;;4.72;2.08;;;14.00;99.90;;;;;;5052659;28;20544;-75
2022/10/24 04:55:33;;;;;;;4.43;1.88;;;14.00;99.90;;;;;;5052924;28;20041;-75
2022/10/24 04:57:58;;;;;;;3.95;2.00;;;14.10;99.90;;;;;;5052684;28;20558;-75
2022/10/24 05:00:24;;;;;;;5.18;1.60;;;14.00;99.90;;;;;;5052448;28;20120;-76
2022/10/24 05:02:50;;;;;;;6.38;2.35;;;14.00;99.90;;;;;;5052525;28;20051;-76
2022/10/24 05:05:16;;;;;;;4.90;1.95;;;14.00;99.90;;;;;;5052381;28;20410;-76
2022/10/24 05:07:42;;;;;;;6.95;1.67;;;14.00;99.90;;;;;;5052212;28;20040;-75
2022/10/24 05:10:08;;;;;;;3.20;1.77;;;13.90;99.90;;;;;;5052167;28;20083;-75
2022/10/24 05:12:34;;;;;;;3.75;1.48;;;13.90;99.90;;;;;;5052609;28;20044;-75
2022/10/24 05:15:00;;;;;;;5.00;1.73;;;13.90;99.90;;;;;;5052573;28;20037;-75
2022/10/24 05:17:26;;;;;;;3.78;1.40;;;13.90;99.90;;;;;;5052339;28;20037;-75
2022/10/24 05:19:51;;;;;;;4.82;1.50;;;13.90;99.90;;;;;;5035326;28;20072;-75
2022/10/24 05:22:17;;;;;;;4.85;1.30;;;13.90;99.90;;;;;;5052157;28;20041;-75
2022/10/24 05:24:43;;;;;;;5.70;1.45;;;13.90;99.90;;;;;;5052075;28;20045;-75
2022/10/24 05:27:08;;;;;;;5.57;1.75;;;13.80;99.90;;;;;;5051982;28;20098;-75
2022/10/24 05:29:34;;;;;;;3.78;1.33;;;13.90;99.90;;;;;;5052056;28;20041;-75
2022/10/24 05:31:59;;;;;;;4.53;1.48;;;13.80;99.90;;;;;;5051911;28;20116;-76
2022/10/24 05:34:26;;;;;;;5.70;1.63;;;13.80;99.90;;;;;;5052207;28;20041;-75
2022/10/24 05:36:51;;;;;;;6.18;1.65;;;13.80;99.90;;;;;;5052043;28;20473;-75
2022/10/24 05:39:17;;;;;;;4.25;1.38;;;13.80;99.90;;;;;;5035186;28;20155;-75
2022/10/24 05:41:43;;;;;;;4.13;1.45;;;13.80;99.90;;;;;;5051983;28;20045;-75
2022/10/24 05:44:11;;;;;;;4.72;1.40;;;13.80;99.90;;;;;;5051715;28;20128;-76
2022/10/24 05:46:36;;;;;;;8.23;1.67;;;13.90;99.90;;;;;;5051527;28;20122;-75
2022/10/24 05:49:03;;;;;;;3.35;1.20;;;13.90;99.90;;;;;;5050764;28;20064;-75
2022/10/24 05:51:29;;;;;;;5.03;1.48;;;14.00;99.90;;;;;;5034845;28;20073;-75
2022/10/24 05:53:55;;;;;;;3.30;1.20;;;13.90;99.90;;;;;;5051809;28;20561;-75
2022/10/24 05:56:20;;;;;;;6.32;1.42;;;14.00;99.90;;;;;;5051469;28;20037;-76
2022/10/24 05:58:46;;;;;;;3.67;1.15;;;14.00;99.90;;;;;;5051442;28;20407;-75
2022/10/24 06:01:11;;;;;;;5.10;1.23;;;14.10;99.90;;;;;;5034700;28;20041;-75
2022/10/24 06:03:38;;;;;;;3.72;1.50;;;14.10;99.90;;;;;;5051340;28;20041;-75
2022/10/24 06:06:08;;;;;;;4.40;1.33;;;14.00;99.90;;;;;;5034662;28;20052;-75
2022/10/24 06:08:35;;;;;;;4.85;1.42;;;14.10;99.90;;;;;;5050963;28;20483;-75
2022/10/24 06:11:01;;;;;;;2.80;1.25;;;14.00;99.90;;;;;;5051127;28;20044;-76
2022/10/24 06:13:26;;;;;;;3.88;1.13;;;14.00;99.90;;;;;;5051314;28;20029;-75
2022/10/24 06:15:52;;;;;;;4.63;1.60;;;14.10;99.90;;;;;;5051154;28;20502;-76
2022/10/24 06:18:18;;;;;;;4.32;1.20;;;14.10;99.90;;;;;;5051101;28;20067;-76
2022/10/24 06:20:43;;;;;;;5.57;1.33;;;14.10;99.90;;;;;;5050792;28;20048;-75
2022/10/24 06:23:09;;;;;;;5.32;1.65;;;14.10;99.90;;;;;;5034416;28;20037;-75
2022/10/24 06:25:35;;;;;;;3.97;1.40;;;14.10;99.90;;;;;;5051244;28;20517;-75
2022/10/24 06:28:01;;;;;;;3.30;1.38;;;14.10;99.90;;;;;;5050555;28;20037;-75
2022/10/24 06:30:27;;;;;;;10.15;2.05;;;14.10;99.90;;;;;;5034414;28;20414;-75
2022/10/24 06:32:52;;;;;;;6.50;1.35;;;14.00;99.90;;;;;;5034457;28;20041;-76
2022/10/24 06:35:18;;;;;;;4.30;1.38;;;14.10;99.90;;;;;;5050745;28;20029;-77
2022/10/24 06:37:44;;;;;;;4.88;1.55;;;14.00;99.90;;;;;;5050590;28;20064;-76
2022/10/24 06:40:10;;;;;;;3.30;1.02;;;14.00;99.90;;;;;;5034025;28;20517;-76
2022/10/24 06:42:36;;;;;;;4.30;1.33;;;14.00;99.90;;;;;;5050731;28;20041;-76
2022/10/24 06:45:02;;;;;;;4.85;1.50;;;14.10;99.90;;;;;;5050867;28;20491;-76
2022/10/24 06:47:28;;;;;;;6.15;1.50;;;14.10;99.90;;;;;;5050479;28;20041;-75
2022/10/24 06:49:53;;;;;;;4.13;1.25;;;14.10;99.90;;;;;;5050441;28;20044;-76
2022/10/24 06:52:19;;;;;;;5.35;1.52;;;14.20;99.90;;;;;;5050539;28;20108;-75
2022/10/24 06:54:45;;;;;;;4.82;1.42;;;14.20;99.90;;;;;;5033961;28;20037;-76
2022/10/24 06:57:10;;;;;;;4.97;1.25;;;14.20;99.90;;;;;;5033867;28;20384;-76
2022/10/24 06:59:36;;;;;;;4.05;1.90;;;14.30;99.90;;;;;;5050410;28;20036;-76
2022/10/24 07:02:01;;;;;;;5.28;1.20;;;14.30;99.90;;;;;;5033758;28;20407;-76
2022/10/24 07:04:27;;;;;;;5.13;1.50;;;14.30;99.90;;;;;;5034061;28;20495;-76
2022/10/24 07:06:53;;;;;;;5.50;1.30;;;14.40;99.90;;;;;;5034016;28;20495;-75
2022/10/24 07:09:20;;;;;;;4.68;1.60;;;14.40;99.90;;;;;;5014043;28;20054;-76
2022/10/24 07:11:45;;;;;;;4.95;1.20;;;14.50;99.90;;;;;;5030382;28;20045;-75
2022/10/24 07:14:11;;;;;;;4.38;1.38;;;14.50;99.90;;;;;;5013936;28;20041;-75
2022/10/24 07:16:37;;;;;;;3.63;1.05;;;14.50;99.90;;;;;;5013878;28;20050;-75
2022/10/24 07:19:03;;;;;;;4.88;1.23;;;14.50;99.90;;;;;;5030191;28;20483;-75
2022/10/24 07:21:31;;;;;;;3.42;1.23;;;14.50;99.90;;;;;;5031004;28;20480;-75
2022/10/24 07:23:58;;;;;;;3.20;1.48;;;14.60;99.90;;;;;;5030443;28;20041;-75
2022/10/24 07:26:25;;;;;;;4.47;1.50;;;14.60;99.90;;;;;;5030299;28;20124;-76
2022/10/24 07:28:57;;;;;;;4.05;1.15;;;14.60;99.90;;;;;;5029993;28;20099;-75
2022/10/24 07:31:26;;;;;;;5.45;1.27;;;14.70;99.90;;;;;;5013818;28;20034;-76
2022/10/24 07:33:52;;;;;;;5.05;1.60;;;14.70;99.90;;;;;;5030233;28;20033;-76
2022/10/24 07:36:20;;;;;;;4.57;1.30;;;14.70;99.90;;;;;;5013572;28;20029;-76
2022/10/24 07:38:47;;;;;;;3.92;1.15;;;14.70;99.90;;;;;;5013799;28;20072;-76
2022/10/24 07:41:13;;;;;;;3.45;1.30;;;14.80;99.90;;;;;;5013957;28;20045;-75
2022/10/24 07:43:38;;;;;;;3.33;1.23;;;14.80;99.90;;;;;;5030183;28;20037;-76
2022/10/24 07:46:15;;;;;;;7.88;1.83;;;15.00;99.90;;;;;;5013513;28;20045;-76
2022/10/24 07:48:41;;;;;;;5.53;1.30;;;15.10;99.90;;;;;;5029871;28;20041;-76
2022/10/24 07:51:12;;;;;;;4.80;1.33;;;15.10;99.90;;;;;;5013828;28;20034;-76
2022/10/24 07:53:39;;;;;;;4.43;1.23;;;15.20;99.90;;;;;;5030284;28;20045;-76
2022/10/24 07:56:08;;;;;;;3.28;1.20;;;15.20;99.90;;;;;;5013625;28;20163;-76
2022/10/24 07:58:34;;;;;;;3.88;1.13;;;15.30;99.90;;;;;;5029964;28;20099;-76
2022/10/24 08:01:12;;;;;;;6.07;1.08;;;15.40;99.90;;;;;;5013422;28;20124;-76
2022/10/24 08:03:38;;;;;;;3.63;0.90;;;15.40;99.90;;;;;;5030179;28;20060;-76
2022/10/24 08:06:06;;;;;;;5.80;1.25;;;15.40;99.90;;;;;;5013709;28;20037;-76
2022/10/24 08:08:31;;;;;;;8.25;1.73;;;15.50;99.90;;;;;;5029903;28;20041;-76
2022/10/24 08:10:57;;;;;;;5.93;1.30;;;15.50;99.90;;;;;;5014591;28;20048;-76
2022/10/24 08:13:23;;;;;;;5.78;1.55;;;15.60;99.90;;;;;;5017119;28;20077;-76
2022/10/24 08:15:48;;;;;;;6.32;1.42;;;15.60;99.90;;;;;;5017240;28;20044;-76
2022/10/24 08:18:14;;;;;;;5.22;1.10;;;15.60;99.90;;;;;;5016831;28;20095;-77
2022/10/24 08:20:40;;;;;;;3.75;1.10;;;15.70;99.90;;;;;;5016901;28;20124;-76
2022/10/24 08:23:05;;;;;;;7.88;2.05;;;15.70;99.90;;;;;;5013540;28;20127;-76
2022/10/24 08:25:31;;;;;;;7.13;1.20;;;15.80;99.90;;;;;;5027022;28;20034;-76
2022/10/24 08:27:56;;;;;;;6.50;1.25;;;15.80;99.90;;;;;;5004683;28;20064;-78
2022/10/24 08:30:23;;;;;;;5.15;1.15;;;15.90;99.90;;;;;;5014388;28;20116;-76
2022/10/24 08:32:49;;;;;;;5.55;1.48;;;15.90;99.90;;;;;;5012562;28;20037;-76
2022/10/24 08:35:17;;;;;;;5.85;1.02;;;15.90;99.90;;;;;;5021040;28;20045;-76
2022/10/24 08:37:43;;;;;;;6.95;1.60;;;16.00;99.90;;;;;;5011681;28;20525;-77
2022/10/24 08:40:15;;;;;;;7.55;1.05;;;16.00;99.90;;;;;;5008720;28;20029;-77
2022/10/24 08:42:41;;;;;;;5.75;0.98;;;16.00;99.90;;;;;;5011258;28;20055;-76
2022/10/24 08:45:25;;;;;;;5.85;1.10;;;16.00;99.90;;;;;;5015892;28;20462;-77
2022/10/24 08:47:55;;;;;;;;;;;15.90;99.90;;;;;;5018764;28;20045;-79
2022/10/24 08:50:32;;;;;;;4.47;1.00;;;15.90;99.90;;;;;;5027181;28;19917;-79
2022/10/24 08:53:02;;;;;;;5.20;1.00;;;15.90;99.90;;;;;;5019387;28;20068;-79
2022/10/24 08:55:37;;;;;;;3.20;0.73;;;15.90;99.90;;;;;;5013687;28;20115;-79
2022/10/24 08:58:04;;;;;;;5.07;1.13;;;15.80;99.90;;;;;;5035441;28;20048;-79
2022/10/24 09:00:37;;;;;;;5.85;1.15;;;15.80;99.90;;;;;;5018538;28;20049;-79
2022/10/24 09:03:29;;;;;;;3.80;0.95;;;15.80;99.90;;;;;;5013024;28;20041;-79
2022/10/24 09:06:12;;;;;;;4.82;1.23;;;15.80;99.90;;;;;;5024211;28;20548;-79
2022/10/24 09:09:02;;;;;;;3.92;0.85;;;15.80;99.90;;;;;;5017261;28;20069;-77
2022/10/24 09:11:45;;;;;;;4.68;1.00;;;15.70;99.90;;;;;;5035112;28;20072;-80
2022/10/24 09:14:20;;;;;;;5.28;1.27;;;15.80;99.90;;;;;;5016963;28;20065;-77
2022/10/24 09:16:54;;;;;;;5.00;1.13;;;15.80;99.90;;;;;;5029524;28;20036;-76
2022/10/24 09:19:22;;;;;;;6.25;1.45;;;15.90;99.90;;;;;;5013149;28;20052;-77
2022/10/24 09:21:50;;;;;;;5.57;1.40;;;16.00;99.90;;;;;;5012241;28;20071;-78
2022/10/24 09:24:40;;;;;;;7.40;1.08;;;16.00;99.90;;;;;;5028669;28;20044;-76
2022/10/24 09:27:20;;;;;;;5.22;1.33;;;16.00;99.90;;;;;;5016413;28;20492;-77
2022/10/24 09:29:46;;;;;;;3.35;0.98;;;16.00;99.90;;;;;;5024219;28;20456;-76
2022/10/24 09:32:19;;;;;;;4.72;1.00;;;16.00;99.90;;;;;;5031606;28;20116;-78
2022/10/24 09:34:45;;;;;;;3.25;0.98;;;16.00;99.90;;;;;;5008189;28;20042;-78
2022/10/24 09:37:29;;;;;;;4.03;0.98;;;16.00;99.90;;;;;;5026225;28;20037;-76
2022/10/24 09:40:22;;;;;;;6.82;1.02;;;15.90;99.90;;;;;;5032532;28;20067;-77
2022/10/24 09:42:58;;;;;;;6.78;1.48;;;15.90;99.90;;;;;;5023015;28;20038;-77
2022/10/24 09:45:40;;;;;;;5.60;1.00;;;16.00;99.90;;;;;;5025375;28;20059;-77
2022/10/24 09:48:23;;;;;;;4.97;1.20;;;16.10;99.90;;;;;;5028859;28;20091;-77
2022/10/24 09:50:51;;;;;;;4.63;1.20;;;16.10;99.90;;;;;;5031914;28;20460;-77
2022/10/24 09:53:23;;;;;;;3.65;0.90;;;16.20;99.90;;;;;;5030349;28;20034;-78
2022/10/24 09:55:55;;;;;;;4.78;0.80;;;16.20;99.90;;;;;;5016443;28;20044;-78
2022/10/24 09:58:28;;;;;;;3.72;0.70;;;16.30;99.90;;;;;;5009171;28;20397;-78
2022/10/24 10:01:05;;;;;;;4.60;0.88;;;16.10;99.90;;;;;;5009674;28;20041;-77
2022/10/24 10:03:33;;;;;;;3.92;0.90;;;16.20;99.90;;;;;;5032399;28;20037;-76
2022/10/24 10:06:03;;;;;;;3.15;0.82;;;16.20;99.90;;;;;;5031285;28;20137;-77
2022/10/24 10:08:32;;;;;;;2.80;0.70;;;16.40;99.90;;;;;;5007573;28;20038;-76
2022/10/24 10:11:11;;;;;;;6.05;0.90;;;16.60;99.90;;;;;;5011099;28;20037;-77
2022/10/24 10:13:49;;;;;;;9.90;0.98;;;16.80;99.90;;;;;;5030602;28;20124;-78
2022/10/24 10:16:26;;;;;;;2.72;0.80;;;16.90;99.90;;;;;;5010068;28;20029;-75
2022/10/24 10:19:14;;;;;;;3.13;0.85;;;16.90;99.90;;;;;;5029277;28;20041;-76
2022/10/24 10:22:23;;;;;;;3.03;0.85;;;16.80;99.90;;;;;;5022418;28;20042;-77
2022/10/24 10:24:49;;;;;;;2.72;0.80;;;16.70;99.90;;;;;;5026890;28;20091;-76
2022/10/24 10:27:34;;;;;;;3.22;1.00;;;16.80;99.90;;;;;;5028677;28;20037;-76
2022/10/24 10:30:08;;;;;;;3.72;1.00;;;17.00;99.90;;;;;;5006567;28;20075;-78
2022/10/24 10:32:42;;;;;;;2.67;0.77;;;17.20;99.90;;;;;;5028520;28;20163;-76
2022/10/24 10:35:23;;;;;;;5.45;0.82;;;17.40;99.90;;;;;;5028462;28;20471;-77
2022/10/24 10:38:00;;;;;;;4.90;1.23;;;17.40;99.90;;;;;;5030744;28;20050;-76
2022/10/24 10:40:43;;;;;;;4.57;0.80;;;17.40;99.90;;;;;;5030976;28;20080;-77
2022/10/24 10:43:54;;;;;;;4.93;0.90;;;17.60;99.90;;;;;;5008021;28;20063;-77
2022/10/24 10:46:32;;;;;;;4.13;0.98;;;17.80;99.90;;;;;;5009152;28;20049;-78
2022/10/24 10:49:09;;;;;;;6.50;1.88;;;17.90;99.90;;;;;;5022551;28;20045;-77
2022/10/24 10:51:56;;;;;;;7.22;1.00;;;17.70;99.90;;;;;;5014160;28;20129;-77
2022/10/24 10:54:45;;;;;;;4.47;1.05;;;17.60;99.90;;;;;;5026105;28;20472;-76
2022/10/24 10:57:45;;;;;;;4.20;1.30;;;17.50;99.90;;;;;;5013051;28;20128;-77
2022/10/24 11:00:24;;;;;;;5.75;0.70;;;17.30;99.90;;;;;;5013105;28;20095;-77
2022/10/24 11:03:04;;;;;;;4.18;1.13;;;17.10;99.90;;;;;;5014273;28;20068;-77
2022/10/24 11:05:52;;;;;;;5.88;1.58;;;17.10;99.90;;;;;;5021181;28;20041;-76
2022/10/24 11:08:45;;;;;;;2.67;0.70;;;17.10;99.90;;;;;;5030018;28;20050;-76
2022/10/24 11:11:23;;;;;;;;;;;17.00;99.90;;;;;;5030818;28;20041;-76
2022/10/24 11:13:55;;;;;;;3.30;0.70;;;16.90;99.90;;;;;;5030487;28;19921;-76
2022/10/24 11:16:25;;;;;;;7.47;1.10;;;16.80;99.90;;;;;;5013411;28;20041;-77
2022/10/24 11:18:53;;;;;;;3.47;0.80;;;16.90;99.90;;;;;;5030195;28;20041;-76
2022/10/24 11:21:22;;;;;;;4.80;1.10;;;16.80;99.90;;;;;;5010561;28;20099;-76
2022/10/24 11:24:06;;;;;;;4.93;0.93;;;16.80;99.90;;;;;;5010818;28;20412;-77
2022/10/24 11:26:34;;;;;;;;;;;16.70;99.90;;;;;;4994884;28;20041;-76
2022/10/24 11:29:35;;;;;;;6.80;1.40;;;16.60;99.90;;;;;;5021440;28;20394;-77
2022/10/24 11:32:09;;;;;;;7.20;1.10;;;16.60;99.90;;;;;;4998921;28;20041;-76
2022/10/24 11:34:49;;;;;;;3.35;0.90;;;16.60;99.90;;;;;;5014226;28;20064;-77
2022/10/24 11:37:26;;;;;;;3.47;1.05;;;16.50;99.90;;;;;;5029335;28;20037;-76
2022/10/24 11:40:30;;;;;;;6.90;0.88;;;16.50;99.90;;;;;;4999257;28;20056;-77
2022/10/24 11:43:14;;;;;;;5.35;1.10;;;16.60;99.90;;;;;;5005186;28;20057;-77
2022/10/24 11:45:48;;;;;;;5.07;1.10;;;16.60;99.90;;;;;;5016451;28;20049;-76
2022/10/24 11:48:26;;;;;;;3.05;0.98;;;16.60;99.90;;;;;;5017560;28;20049;-77
2022/10/24 11:50:57;;;;;;;5.47;1.48;;;16.60;99.90;;;;;;5034213;28;20395;-77
2022/10/24 11:53:31;;;;;;;5.35;0.90;;;16.60;99.90;;;;;;5026875;28;20115;-78
2022/10/24 11:56:18;;;;;;;4.85;1.00;;;16.60;99.90;;;;;;5034224;28;20037;-77
2022/10/24 11:58:57;;;;;;;5.45;1.02;;;16.60;99.90;;;;;;5034777;28;20115;-77
2022/10/24 12:02:06;;;;;;;5.38;1.85;;;16.50;99.90;;;;;;5033999;28;20045;-77
2022/10/24 12:04:40;;;;;;;3.42;0.65;;;16.40;99.90;;;;;;5032168;28;20041;-76
2022/10/24 12:07:12;;;;;;;4.40;1.10;;;16.30;99.90;;;;;;5033830;28;20048;-77
2022/10/24 12:09:46;;;;;;;4.10;0.90;;;16.50;99.90;;;;;;5033804;28;20081;-77
2022/10/24 12:12:26;;;;;;;5.93;2.20;;;16.60;99.90;;;;;;5034314;28;20044;-76
2022/10/24 12:15:16;;;;;;;4.13;0.75;;;16.90;99.90;;;;;;5033195;28;20029;-77
2022/10/24 12:18:06;;;;;;;4.70;0.90;;;17.10;99.90;;;;;;5026362;28;20097;-77
2022/10/24 12:20:32;;;;;;;3.85;0.90;;;17.20;99.90;;;;;;5034637;28;20045;-76
2022/10/24 12:23:00;;;;;;;3.90;1.05;;;17.10;99.90;;;;;;5031763;28;20057;-76
2022/10/24 12:25:28;;;;;;;6.22;1.10;;;16.90;99.90;;;;;;5030870;28;20050;-78
2022/10/24 12:27:57;;;;;;;3.67;0.80;;;16.80;99.90;;;;;;5031842;28;20123;-76
2022/10/24 12:30:26;;;;;;;2.60;0.68;;;16.90;99.90;;;;;;5033159;28;20076;-77
2022/10/24 12:32:55;;;;;;;3.67;0.70;;;17.00;99.90;;;;;;5033190;28;20522;-76
2022/10/24 12:35:43;;;;;;;3.60;0.65;;;17.20;99.90;;;;;;5031318;28;20076;-76
2022/10/24 12:38:17;;;;;;;4.28;0.88;;;17.30;99.90;;;;;;5032712;28;20084;-75
2022/10/24 12:40:51;;;;;;;4.03;0.85;;;17.50;99.90;;;;;;5032941;28;20049;-76
2022/10/24 12:43:27;;;;;;;5.95;0.70;;;17.70;99.90;;;;;;5028871;28;20080;-76
2022/10/24 12:45:54;;;;;;;4.15;0.70;;;17.90;99.90;;;;;;5019088;28;20042;-75
2022/10/24 12:48:27;;;;;;;4.20;0.57;;;17.80;99.90;;;;;;5032204;28;20372;-75
2022/10/24 12:50:57;;;;;;;4.05;0.90;;;17.60;99.90;;;;;;5032981;28;20033;-75
2022/10/24 12:53:59;;;;;;;4.68;0.77;;;17.40;99.90;;;;;;5016236;28;20499;-75
2022/10/24 12:56:25;;;;;;;2.35;0.63;;;17.20;99.90;;;;;;4993206;28;20488;-75
2022/10/24 12:59:01;;;;;;;6.30;1.08;;;17.10;99.90;;;;;;5032231;28;20056;-76
2022/10/24 13:01:35;;;;;;;3.00;0.65;;;17.00;99.90;;;;;;5023899;28;20496;-78
2022/10/24 13:04:03;;;;;;;2.85;0.90;;;16.90;99.90;;;;;;5030749;28;20083;-77
2022/10/24 13:07:05;;;;;;;4.55;0.90;;;16.80;99.90;;;;;;5006457;28;20037;-76
2022/10/24 13:09:49;;;;;;;5.18;0.70;;;16.70;99.90;;;;;;5012688;28;20038;-76